createdAt,value
2023-01-15T00:00:40.084Z,0
2023-01-15T00:01:57.188Z,0
2023-01-15T00:03:14.293Z,0
2023-01-15T00:04:30.419Z,0
2023-01-15T00:05:46.540Z,0
2023-01-15T00:07:03.645Z,0
2023-01-15T00:08:19.771Z,0
2023-01-15T00:09:35.892Z,0
2023-01-15T00:10:52.997Z,0
2023-01-15T00:12:10.102Z,0
2023-01-15T00:13:27.206Z,0
2023-01-15T00:14:44.311Z,0
2023-01-15T00:16:01.416Z,0
2023-01-15T00:17:18.521Z,0
2023-01-15T00:18:35.625Z,0
2023-01-15T00:19:52.730Z,0
2023-01-15T00:21:09.835Z,0
2023-01-15T00:22:26.940Z,0
2023-01-15T00:23:44.045Z,0
2023-01-15T00:25:01.150Z,0
2023-01-15T00:26:17.271Z,0
2023-01-15T00:27:34.375Z,0
2023-01-15T00:28:51.480Z,0
2023-01-15T00:30:08.585Z,0
2023-01-15T00:31:25.690Z,0
2023-01-15T00:32:42.795Z,0
2023-01-15T00:33:59.900Z,0
2023-01-15T00:35:16.026Z,0
2023-01-15T00:36:32.147Z,0
2023-01-15T00:37:48.273Z,0
2023-01-15T00:39:04.394Z,0
2023-01-15T00:40:21.498Z,0
2023-01-15T00:41:38.603Z,0
2023-01-15T00:42:55.708Z,0
2023-01-15T00:44:12.813Z,0
2023-01-15T00:45:29.918Z,0
2023-01-15T00:46:47.022Z,0
2023-01-15T00:48:04.128Z,0
2023-01-15T00:49:21.232Z,0
2023-01-15T00:50:38.337Z,0
2023-01-15T00:51:55.442Z,0
2023-01-15T00:53:12.547Z,0
2023-01-15T00:54:29.652Z,0
2023-01-15T00:55:45.773Z,0
2023-01-15T00:57:02.877Z,0
2023-01-15T00:58:19.982Z,0
2023-01-15T00:59:37.088Z,0
2023-01-15T01:00:54.192Z,0
2023-01-15T01:02:11.297Z,0
2023-01-15T01:03:28.402Z,0
2023-01-15T01:04:44.528Z,0
2023-01-15T01:06:00.649Z,0
2023-01-15T01:07:16.775Z,0
2023-01-15T01:08:32.896Z,0
2023-01-15T01:09:50.001Z,0
2023-01-15T01:11:07.106Z,0
2023-01-15T01:12:24.211Z,0
2023-01-15T01:13:41.316Z,0
2023-01-15T01:14:58.421Z,0
2023-01-15T01:16:15.526Z,0
2023-01-15T01:17:32.631Z,0
2023-01-15T01:18:49.736Z,0
2023-01-15T01:20:06.839Z,0
2023-01-15T01:21:23.943Z,0
2023-01-15T01:22:41.048Z,0
2023-01-15T01:23:58.153Z,0
2023-01-15T01:25:14.274Z,0
2023-01-15T01:26:31.379Z,0
2023-01-15T01:27:48.484Z,0
2023-01-15T01:29:05.588Z,0
2023-01-15T01:30:22.693Z,0
2023-01-15T01:31:39.798Z,0
2023-01-15T01:32:56.904Z,0
2023-01-15T01:34:14.009Z,0
2023-01-15T01:35:31.114Z,0
2023-01-15T01:36:48.219Z,0
2023-01-15T01:38:05.324Z,0
2023-01-15T01:39:22.429Z,0
2023-01-15T01:40:39.534Z,0
2023-01-15T01:41:55.655Z,0
2023-01-15T01:43:12.760Z,0
2023-01-15T01:44:29.865Z,0
2023-01-15T01:45:46.970Z,0
2023-01-15T01:47:04.074Z,0
2023-01-15T01:48:21.180Z,0
2023-01-15T01:49:38.285Z,0
2023-01-15T01:50:55.389Z,0
2023-01-15T01:52:12.494Z,0
2023-01-15T01:53:29.599Z,0
2023-01-15T01:54:46.704Z,0
2023-01-15T01:56:03.809Z,0
2023-01-15T01:57:20.915Z,0
2023-01-15T01:58:37.036Z,0
2023-01-15T01:59:54.141Z,0
2023-01-15T02:01:11.246Z,0
2023-01-15T02:02:28.351Z,0
2023-01-15T02:03:44.477Z,0
2023-01-15T02:05:00.598Z,0
2023-01-15T02:06:17.703Z,0
2023-01-15T02:07:33.829Z,0
2023-01-15T02:08:49.950Z,0
2023-01-15T02:10:07.055Z,0
2023-01-15T02:11:24.160Z,0
2023-01-15T02:12:41.265Z,0
2023-01-15T02:13:58.370Z,0
2023-01-15T02:15:15.476Z,0
2023-01-15T02:16:32.581Z,0
2023-01-15T02:17:49.686Z,0
2023-01-15T02:19:06.791Z,0
2023-01-15T02:20:23.896Z,0
2023-01-15T02:21:41.001Z,0
2023-01-15T02:22:58.106Z,0
2023-01-15T02:24:15.211Z,0
2023-01-15T02:25:31.331Z,0
2023-01-15T02:26:48.437Z,0
2023-01-15T02:28:05.542Z,0
2023-01-15T02:29:22.646Z,0
2023-01-15T02:30:39.751Z,0
2023-01-15T02:31:56.856Z,0
2023-01-15T02:33:13.961Z,0
2023-01-15T02:34:31.066Z,0
2023-01-15T02:35:48.171Z,0
2023-01-15T02:37:05.276Z,0
2023-01-15T02:38:22.381Z,0
2023-01-15T02:39:39.485Z,0
2023-01-15T02:40:56.590Z,0
2023-01-15T02:42:12.711Z,0
2023-01-15T02:43:29.816Z,0
2023-01-15T02:44:46.922Z,0
2023-01-15T02:46:04.027Z,0
2023-01-15T02:47:21.132Z,0
2023-01-15T02:48:38.237Z,0
2023-01-15T02:49:55.342Z,0
2023-01-15T02:51:12.447Z,0
2023-01-15T02:52:29.551Z,0
2023-01-15T02:53:46.656Z,0
2023-01-15T02:55:03.761Z,0
2023-01-15T02:56:20.866Z,0
2023-01-15T02:57:37.971Z,0
2023-01-15T02:58:54.092Z,0
2023-01-15T03:00:11.197Z,0
2023-01-15T03:01:28.302Z,0
2023-01-15T03:02:45.407Z,0
2023-01-15T03:04:02.512Z,0
2023-01-15T03:05:19.616Z,0
2023-01-15T03:06:36.721Z,0
2023-01-15T03:07:53.826Z,0
2023-01-15T03:09:10.931Z,0
2023-01-15T03:10:28.036Z,0
2023-01-15T03:11:45.141Z,0
2023-01-15T03:13:02.246Z,0
2023-01-15T03:14:19.351Z,0
2023-01-15T03:15:35.472Z,0
2023-01-15T03:16:52.576Z,0
2023-01-15T03:18:09.681Z,0
2023-01-15T03:19:26.786Z,0
2023-01-15T03:20:43.891Z,0
2023-01-15T03:22:00.996Z,0
2023-01-15T03:23:18.101Z,0
2023-01-15T03:24:35.206Z,0
2023-01-15T03:25:52.311Z,0
2023-01-15T03:27:09.416Z,0
2023-01-15T03:28:26.520Z,0
2023-01-15T03:29:43.625Z,0
2023-01-15T03:31:00.730Z,0
2023-01-15T03:32:16.851Z,0
2023-01-15T03:33:33.956Z,0
2023-01-15T03:34:51.059Z,0
2023-01-15T03:36:08.164Z,0
2023-01-15T03:37:24.290Z,0
2023-01-15T03:38:40.411Z,0
2023-01-15T03:39:56.537Z,0
2023-01-15T03:41:12.658Z,0
2023-01-15T03:42:29.763Z,0
2023-01-15T03:43:46.868Z,0
2023-01-15T03:45:03.973Z,0
2023-01-15T03:46:21.078Z,0
2023-01-15T03:47:38.182Z,0
2023-01-15T03:48:55.288Z,0
2023-01-15T03:50:12.392Z,0
2023-01-15T03:51:29.497Z,0
2023-01-15T03:52:46.602Z,0
2023-01-15T03:54:03.707Z,0
2023-01-15T03:55:20.812Z,0
2023-01-15T03:56:37.916Z,0
2023-01-15T03:57:54.037Z,0
2023-01-15T03:59:11.142Z,0
2023-01-15T04:00:28.247Z,0
2023-01-15T04:01:45.352Z,0
2023-01-15T04:03:02.457Z,0
2023-01-15T04:04:19.562Z,0
2023-01-15T04:05:36.666Z,0
2023-01-15T04:06:52.793Z,0
2023-01-15T04:08:08.913Z,0
2023-01-15T04:09:26.018Z,0
2023-01-15T04:10:43.123Z,0
2023-01-15T04:11:59.249Z,0
2023-01-15T04:13:15.370Z,0
2023-01-15T04:14:32.475Z,0
2023-01-15T04:15:49.581Z,0
2023-01-15T04:17:06.686Z,0
2023-01-15T04:18:23.791Z,0
2023-01-15T04:19:40.896Z,0
2023-01-15T04:20:58.000Z,0
2023-01-15T04:22:15.105Z,0
2023-01-15T04:23:32.210Z,0
2023-01-15T04:24:49.315Z,0
2023-01-15T04:26:06.420Z,0
2023-01-15T04:27:23.525Z,0
2023-01-15T04:28:40.630Z,0
2023-01-15T04:29:56.751Z,0
2023-01-15T04:31:13.855Z,0
2023-01-15T04:32:30.960Z,0
2023-01-15T04:33:48.065Z,0
2023-01-15T04:35:05.170Z,0
2023-01-15T04:36:22.275Z,0
2023-01-15T04:37:39.380Z,0
2023-01-15T04:38:55.506Z,0
2023-01-15T04:40:11.627Z,0
2023-01-15T04:41:27.753Z,0
2023-01-15T04:42:43.874Z,0
2023-01-15T04:44:00.979Z,0
2023-01-15T04:45:18.084Z,0
2023-01-15T04:46:35.189Z,0
2023-01-15T04:47:52.294Z,0
2023-01-15T04:49:09.399Z,0
2023-01-15T04:50:26.503Z,0
2023-01-15T04:51:43.608Z,0
2023-01-15T04:53:00.713Z,0
2023-01-15T04:54:17.818Z,0
2023-01-15T04:55:34.923Z,0
2023-01-15T04:56:52.028Z,0
2023-01-15T04:58:09.133Z,0
2023-01-15T04:59:25.254Z,0
2023-01-15T05:00:42.360Z,0
2023-01-15T05:01:59.464Z,0
2023-01-15T05:03:16.569Z,0
2023-01-15T05:04:33.674Z,0
2023-01-15T05:05:50.779Z,0
2023-01-15T05:07:07.884Z,0
2023-01-15T05:08:24.010Z,0
2023-01-15T05:09:40.131Z,0
2023-01-15T05:10:56.257Z,0
2023-01-15T05:12:12.378Z,0
2023-01-15T05:13:29.483Z,0
2023-01-15T05:14:46.588Z,0
2023-01-15T05:16:03.693Z,0
2023-01-15T05:17:20.798Z,0
2023-01-15T05:18:37.903Z,0
2023-01-15T05:19:55.008Z,0
2023-01-15T05:21:12.113Z,0
2023-01-15T05:22:29.218Z,0
2023-01-15T05:23:46.322Z,0
2023-01-15T05:25:03.427Z,0
2023-01-15T05:26:20.532Z,0
2023-01-15T05:27:37.637Z,0
2023-01-15T05:28:53.758Z,0
2023-01-15T05:30:10.863Z,0
2023-01-15T05:31:27.968Z,0
2023-01-15T05:32:45.074Z,0
2023-01-15T05:34:02.178Z,0
2023-01-15T05:35:19.283Z,0
2023-01-15T05:36:36.388Z,0
2023-01-15T05:37:52.514Z,0
2023-01-15T05:39:08.635Z,0
2023-01-15T05:40:25.740Z,0
2023-01-15T05:41:42.845Z,0
2023-01-15T05:42:59.950Z,0
2023-01-15T05:44:16.076Z,0
2023-01-15T05:45:32.197Z,0
2023-01-15T05:46:49.302Z,0
2023-01-15T05:48:06.407Z,0
2023-01-15T05:49:23.512Z,0
2023-01-15T05:50:40.616Z,0
2023-01-15T05:51:57.721Z,0
2023-01-15T05:53:14.826Z,0
2023-01-15T05:54:31.931Z,0
2023-01-15T05:55:49.036Z,0
2023-01-15T05:57:06.141Z,0
2023-01-15T05:58:23.247Z,0
2023-01-15T05:59:40.351Z,0
2023-01-15T06:00:57.456Z,0
2023-01-15T06:02:13.577Z,0
2023-01-15T06:03:30.682Z,0
2023-01-15T06:04:47.787Z,0
2023-01-15T06:06:04.891Z,0
2023-01-15T06:07:21.996Z,0
2023-01-15T06:08:39.101Z,0
2023-01-15T06:09:56.206Z,0
2023-01-15T06:11:12.332Z,0
2023-01-15T06:12:28.453Z,0
2023-01-15T06:13:44.578Z,0
2023-01-15T06:15:00.699Z,0
2023-01-15T06:16:17.803Z,0
2023-01-15T06:17:34.908Z,0
2023-01-15T06:18:52.013Z,0
2023-01-15T06:20:09.118Z,0
2023-01-15T06:21:26.223Z,0
2023-01-15T06:22:43.327Z,0
2023-01-15T06:24:00.433Z,0
2023-01-15T06:25:17.537Z,0
2023-01-15T06:26:34.642Z,0
2023-01-15T06:27:51.747Z,0
2023-01-15T06:29:08.852Z,0
2023-01-15T06:30:25.957Z,0
2023-01-15T06:31:42.077Z,0
2023-01-15T06:32:59.182Z,0
2023-01-15T06:34:16.287Z,0
2023-01-15T06:35:33.392Z,0
2023-01-15T06:36:50.497Z,0
2023-01-15T06:38:07.602Z,0
2023-01-15T06:39:24.707Z,0
2023-01-15T06:40:41.812Z,0
2023-01-15T06:41:58.916Z,0
2023-01-15T06:43:16.021Z,0
2023-01-15T06:44:33.126Z,0
2023-01-15T06:45:50.231Z,0
2023-01-15T06:47:07.336Z,0
2023-01-15T06:48:23.457Z,0
2023-01-15T06:49:40.562Z,0
2023-01-15T06:50:57.667Z,0
2023-01-15T06:52:14.771Z,0
2023-01-15T06:53:31.876Z,0
2023-01-15T06:54:48.981Z,0
2023-01-15T06:56:06.086Z,0
2023-01-15T06:57:23.191Z,0
2023-01-15T06:58:40.296Z,0
2023-01-15T06:59:57.401Z,0
2023-01-15T07:01:14.505Z,0
2023-01-15T07:02:31.610Z,4
2023-01-15T07:03:48.715Z,4
2023-01-15T07:05:04.836Z,4
2023-01-15T07:06:21.941Z,4
2023-01-15T07:07:39.046Z,8
2023-01-15T07:08:56.152Z,8
2023-01-15T07:10:13.257Z,4
2023-01-15T07:11:30.362Z,8
2023-01-15T07:12:47.467Z,8
2023-01-15T07:14:04.571Z,16
2023-01-15T07:15:21.676Z,16
2023-01-15T07:16:38.781Z,16
2023-01-15T07:17:55.886Z,20
2023-01-15T07:19:12.991Z,20
2023-01-15T07:20:30.096Z,20
2023-01-15T07:21:46.216Z,28
2023-01-15T07:23:03.321Z,28
2023-01-15T07:24:20.426Z,28
2023-01-15T07:25:37.531Z,36
2023-01-15T07:26:54.637Z,36
2023-01-15T07:28:11.741Z,48
2023-01-15T07:29:28.846Z,60
2023-01-15T07:30:45.951Z,60
2023-01-15T07:32:03.056Z,56
2023-01-15T07:33:20.161Z,68
2023-01-15T07:34:37.266Z,76
2023-01-15T07:35:54.371Z,84
2023-01-15T07:37:11.475Z,92
2023-01-15T07:38:27.596Z,92
2023-01-15T07:39:44.701Z,100
2023-01-15T07:41:01.806Z,104
2023-01-15T07:42:17.932Z,104
2023-01-15T07:43:34.053Z,100
2023-01-15T07:44:51.158Z,104
2023-01-15T07:46:08.263Z,124
2023-01-15T07:47:24.389Z,144
2023-01-15T07:49:57.615Z,184
2023-01-15T07:51:14.720Z,200
2023-01-15T07:52:31.824Z,192
2023-01-15T07:53:48.929Z,208
2023-01-15T07:55:06.034Z,200
2023-01-15T07:56:23.139Z,188
2023-01-15T07:57:40.244Z,220
2023-01-15T07:58:56.365Z,228
2023-01-15T08:00:13.470Z,228
2023-01-15T08:01:30.575Z,224
2023-01-15T08:02:47.679Z,220
2023-01-15T08:04:04.784Z,192
2023-01-15T08:05:21.889Z,184
2023-01-15T08:06:38.994Z,216
2023-01-15T08:07:56.099Z,224
2023-01-15T08:09:13.204Z,248
2023-01-15T08:10:30.309Z,244
2023-01-15T08:11:47.413Z,228
2023-01-15T08:13:04.518Z,212
2023-01-15T08:14:21.623Z,212
2023-01-15T08:15:37.749Z,276
2023-01-15T08:16:53.871Z,348
2023-01-15T08:18:09.997Z,436
2023-01-15T08:19:26.118Z,496
2023-01-15T08:20:43.223Z,496
2023-01-15T08:22:00.328Z,528
2023-01-15T08:23:17.432Z,532
2023-01-15T08:24:34.538Z,532
2023-01-15T08:25:51.643Z,524
2023-01-15T08:27:08.747Z,596
2023-01-15T08:28:25.852Z,716
2023-01-15T08:29:42.957Z,828
2023-01-15T08:31:00.062Z,908
2023-01-15T08:32:17.167Z,984
2023-01-15T08:33:34.272Z,1000
2023-01-15T08:34:51.377Z,1036
2023-01-15T08:36:07.498Z,1040
2023-01-15T08:37:24.603Z,1016
2023-01-15T08:38:41.707Z,1016
2023-01-15T08:39:58.812Z,1024
2023-01-15T08:41:15.917Z,996
2023-01-15T08:42:33.022Z,960
2023-01-15T08:43:50.127Z,1052
2023-01-15T08:45:06.253Z,1148
2023-01-15T08:46:22.374Z,1276
2023-01-15T08:47:39.479Z,984
2023-01-15T08:48:56.584Z,876
2023-01-15T08:50:13.689Z,1160
2023-01-15T08:51:30.794Z,1216
2023-01-15T08:52:47.899Z,1204
2023-01-15T08:54:05.004Z,1356
2023-01-15T08:55:22.108Z,1472
2023-01-15T08:56:39.213Z,1364
2023-01-15T08:57:56.318Z,1316
2023-01-15T08:59:13.423Z,1128
2023-01-15T09:00:30.528Z,1048
2023-01-15T09:01:47.633Z,984
2023-01-15T09:03:03.754Z,988
2023-01-15T09:04:20.859Z,1124
2023-01-15T09:06:55.068Z,1316
2023-01-15T09:08:12.173Z,1236
2023-01-15T09:09:29.278Z,1136
2023-01-15T09:10:46.383Z,1112
2023-01-15T09:12:03.488Z,1064
2023-01-15T09:13:19.614Z,1224
2023-01-15T09:14:35.735Z,1580
2023-01-15T09:15:51.861Z,1728
2023-01-15T09:17:07.982Z,1736
2023-01-15T09:18:25.087Z,1492
2023-01-15T09:19:41.213Z,1472
2023-01-15T09:20:57.334Z,1312
2023-01-15T09:22:14.439Z,984
2023-01-15T09:23:31.544Z,724
2023-01-15T09:24:48.649Z,660
2023-01-15T09:26:05.754Z,740
2023-01-15T09:27:22.858Z,1104
2023-01-15T09:28:39.964Z,1544
2023-01-15T09:29:57.069Z,1648
2023-01-15T09:31:14.173Z,2280
2023-01-15T09:32:31.278Z,2704
2023-01-15T09:33:48.383Z,2856
2023-01-15T09:35:05.488Z,2892
2023-01-15T09:36:22.593Z,2828
2023-01-15T09:37:38.714Z,2836
2023-01-15T09:38:55.818Z,2736
2023-01-15T09:40:12.924Z,2680
2023-01-15T09:41:30.028Z,2700
2023-01-15T09:42:47.133Z,2604
2023-01-15T09:44:04.238Z,2692
2023-01-15T09:45:21.343Z,2792
2023-01-15T09:46:37.469Z,2780
2023-01-15T09:47:53.590Z,2700
2023-01-15T09:49:09.716Z,2632
2023-01-15T09:50:25.837Z,2584
2023-01-15T09:51:42.942Z,2380
2023-01-15T09:53:00.046Z,2480
2023-01-15T09:54:17.151Z,2696
2023-01-15T09:55:34.256Z,2864
2023-01-15T09:56:51.361Z,3104
2023-01-15T09:58:08.466Z,3368
2023-01-15T09:59:25.571Z,3536
2023-01-15T10:00:42.676Z,3680
2023-01-15T10:01:59.781Z,3860
2023-01-15T10:03:16.885Z,3764
2023-01-15T10:04:33.990Z,3508
2023-01-15T10:05:51.095Z,3524
2023-01-15T10:07:07.216Z,3408
2023-01-15T10:08:24.321Z,3304
2023-01-15T10:09:41.426Z,3176
2023-01-15T10:10:58.531Z,3272
2023-01-15T10:12:15.636Z,3412
2023-01-15T10:13:32.740Z,3476
2023-01-15T10:14:49.845Z,3572
2023-01-15T10:16:06.950Z,3704
2023-01-15T10:17:24.055Z,3960
2023-01-15T10:18:41.160Z,4580
2023-01-15T10:19:58.265Z,4964
2023-01-15T10:21:15.370Z,4956
2023-01-15T10:22:32.475Z,5152
2023-01-15T10:23:48.601Z,5588
2023-01-15T10:25:04.722Z,5676
2023-01-15T10:26:21.827Z,5156
2023-01-15T10:27:37.953Z,4716
2023-01-15T10:28:54.074Z,4300
2023-01-15T10:30:11.179Z,4256
2023-01-15T10:31:28.284Z,3852
2023-01-15T10:32:45.389Z,3392
2023-01-15T10:34:02.492Z,3440
2023-01-15T10:35:19.596Z,3324
2023-01-15T10:36:36.701Z,3180
2023-01-15T10:37:53.806Z,2972
2023-01-15T10:39:10.911Z,2624
2023-01-15T10:40:28.016Z,2484
2023-01-15T10:41:45.121Z,2176
2023-01-15T10:43:02.227Z,2668
2023-01-15T10:44:19.331Z,3388
2023-01-15T10:46:52.557Z,3804
2023-01-15T10:48:09.662Z,4540
2023-01-15T10:49:26.767Z,5280
2023-01-15T10:50:43.871Z,4568
2023-01-15T10:52:00.976Z,4952
2023-01-15T10:53:18.081Z,3952
2023-01-15T10:54:35.186Z,4316
2023-01-15T10:55:51.312Z,5120
2023-01-15T10:57:07.433Z,4704
2023-01-15T10:58:23.559Z,5436
2023-01-15T10:59:39.680Z,4492
2023-01-15T11:00:56.785Z,5200
2023-01-15T11:02:13.890Z,4972
2023-01-15T11:03:30.995Z,5988
2023-01-15T11:04:48.100Z,6788
2023-01-15T11:06:05.204Z,6072
2023-01-15T11:07:22.309Z,5132
2023-01-15T11:08:39.412Z,6912
2023-01-15T11:09:56.517Z,5868
2023-01-15T11:11:13.622Z,4928
2023-01-15T11:12:30.726Z,5380
2023-01-15T11:13:47.831Z,7116
2023-01-15T11:15:04.936Z,7300
2023-01-15T11:16:21.057Z,6900
2023-01-15T11:17:38.161Z,6460
2023-01-15T11:18:55.266Z,6400
2023-01-15T11:20:12.370Z,8420
2023-01-15T11:21:29.475Z,7020
2023-01-15T11:22:46.580Z,6408
2023-01-15T11:24:03.685Z,7124
2023-01-15T11:25:20.789Z,5220
2023-01-15T11:26:37.894Z,4952
2023-01-15T11:27:54.999Z,5176
2023-01-15T11:29:12.103Z,5208
2023-01-15T11:30:29.208Z,4572
2023-01-15T11:31:46.313Z,4836
2023-01-15T11:33:02.434Z,4568
2023-01-15T11:34:19.538Z,3300
2023-01-15T11:35:36.643Z,3104
2023-01-15T11:36:53.747Z,3472
2023-01-15T11:38:10.852Z,3964
2023-01-15T11:39:27.957Z,3960
2023-01-15T11:40:45.061Z,4412
2023-01-15T11:42:02.166Z,4144
2023-01-15T11:43:19.271Z,4304
2023-01-15T11:44:36.376Z,4532
2023-01-15T11:45:52.502Z,4832
2023-01-15T11:47:08.622Z,4920
2023-01-15T11:48:24.748Z,4468
2023-01-15T11:49:40.869Z,3272
2023-01-15T11:50:57.974Z,3168
2023-01-15T11:52:15.078Z,3532
2023-01-15T11:53:32.183Z,2980
2023-01-15T11:54:49.287Z,2836
2023-01-15T11:56:06.392Z,2396
2023-01-15T11:57:23.497Z,2436
2023-01-15T11:58:40.602Z,2932
2023-01-15T11:59:57.707Z,3104
2023-01-15T12:01:14.811Z,2348
2023-01-15T12:02:31.916Z,2904
2023-01-15T12:03:49.021Z,4060
2023-01-15T12:05:06.126Z,4432
2023-01-15T12:06:22.246Z,4484
2023-01-15T12:07:39.351Z,4036
2023-01-15T12:08:56.456Z,4028
2023-01-15T12:10:13.561Z,3780
2023-01-15T12:11:30.665Z,3084
2023-01-15T12:12:47.770Z,2964
2023-01-15T12:14:04.875Z,2616
2023-01-15T12:15:21.001Z,3028
2023-01-15T12:16:37.122Z,3364
2023-01-15T12:17:54.226Z,3004
2023-01-15T12:19:10.352Z,3040
2023-01-15T12:20:26.473Z,2612
2023-01-15T12:21:43.578Z,3420
2023-01-15T12:23:00.684Z,4096
2023-01-15T12:24:17.788Z,4316
2023-01-15T12:25:34.893Z,4024
2023-01-15T12:26:51.998Z,4008
2023-01-15T12:28:09.103Z,3088
2023-01-15T12:29:26.207Z,2508
2023-01-15T12:30:43.312Z,2280
2023-01-15T12:32:00.417Z,2988
2023-01-15T12:33:17.521Z,3120
2023-01-15T12:34:34.626Z,2492
2023-01-15T12:35:51.731Z,1876
2023-01-15T12:37:07.852Z,1876
2023-01-15T12:38:24.957Z,1720
2023-01-15T12:39:42.061Z,1856
2023-01-15T12:40:59.166Z,1644
2023-01-15T12:42:16.271Z,1688
2023-01-15T12:43:33.376Z,1448
2023-01-15T12:44:50.480Z,1524
2023-01-15T12:46:06.606Z,1612
2023-01-15T12:47:22.727Z,2020
2023-01-15T12:48:38.853Z,3140
2023-01-15T12:49:54.974Z,3168
2023-01-15T12:51:12.079Z,3524
2023-01-15T12:52:29.184Z,4056
2023-01-15T12:53:46.289Z,4572
2023-01-15T12:55:03.394Z,4288
2023-01-15T12:56:20.498Z,5612
2023-01-15T12:57:37.603Z,6096
2023-01-15T12:58:54.708Z,5672
2023-01-15T13:00:11.812Z,4580
2023-01-15T13:01:28.917Z,4628
2023-01-15T13:02:46.022Z,4592
2023-01-15T13:04:03.127Z,4248
2023-01-15T13:05:20.232Z,4156
2023-01-15T13:06:36.352Z,3804
2023-01-15T13:07:53.457Z,3264
2023-01-15T13:09:10.562Z,3040
2023-01-15T13:10:27.667Z,2720
2023-01-15T13:11:44.771Z,2456
2023-01-15T13:13:01.876Z,2416
2023-01-15T13:14:18.981Z,2056
2023-01-15T13:15:36.086Z,2164
2023-01-15T13:16:53.190Z,1820
2023-01-15T13:18:10.295Z,1556
2023-01-15T13:19:27.400Z,1400
2023-01-15T13:20:44.504Z,1284
2023-01-15T13:22:01.609Z,1072
2023-01-15T13:23:17.730Z,1164
2023-01-15T13:24:34.835Z,1276
2023-01-15T13:25:51.940Z,1364
2023-01-15T13:27:09.045Z,1656
2023-01-15T13:28:26.149Z,1912
2023-01-15T13:29:43.254Z,1880
2023-01-15T13:31:00.359Z,1820
2023-01-15T13:32:17.464Z,2076
2023-01-15T13:33:34.568Z,2324
2023-01-15T13:34:51.673Z,2492
2023-01-15T13:36:08.778Z,1968
2023-01-15T13:37:25.883Z,1940
2023-01-15T13:38:42.988Z,1844
2023-01-15T13:39:59.109Z,1428
2023-01-15T13:41:16.213Z,1280
2023-01-15T13:42:33.318Z,1668
2023-01-15T13:43:50.423Z,2088
2023-01-15T13:45:07.527Z,2012
2023-01-15T13:46:24.632Z,1836
2023-01-15T13:47:41.737Z,1844
2023-01-15T13:48:58.842Z,1712
2023-01-15T13:50:15.947Z,1784
2023-01-15T13:51:33.052Z,1456
2023-01-15T13:52:49.178Z,1548
2023-01-15T13:54:05.299Z,1356
2023-01-15T13:55:22.403Z,1352
2023-01-15T13:56:38.529Z,1272
2023-01-15T13:57:54.650Z,1424
2023-01-15T13:59:11.755Z,1184
2023-01-15T14:00:28.860Z,1540
2023-01-15T14:01:45.965Z,1980
2023-01-15T14:03:03.070Z,2304
2023-01-15T14:04:20.174Z,2440
2023-01-15T14:06:54.384Z,1776
2023-01-15T14:08:11.489Z,1556
2023-01-15T14:09:28.594Z,1800
2023-01-15T14:10:45.698Z,1492
2023-01-15T14:12:02.803Z,1540
2023-01-15T14:13:19.908Z,1572
2023-01-15T14:14:36.029Z,1380
2023-01-15T14:15:53.134Z,1524
2023-01-15T14:17:10.238Z,1952
2023-01-15T14:18:27.343Z,1836
2023-01-15T14:19:44.448Z,1620
2023-01-15T14:21:01.553Z,1824
2023-01-15T14:22:18.657Z,1820
2023-01-15T14:23:35.762Z,1580
2023-01-15T14:24:52.867Z,1508
2023-01-15T14:26:09.972Z,1432
2023-01-15T14:27:27.077Z,1368
2023-01-15T14:28:44.182Z,1320
2023-01-15T14:30:01.286Z,992
2023-01-15T14:31:17.407Z,1084
2023-01-15T14:32:34.512Z,788
2023-01-15T14:33:51.617Z,788
2023-01-15T14:35:08.721Z,848
2023-01-15T14:37:42.931Z,648
2023-01-15T14:39:00.036Z,716
2023-01-15T14:40:17.141Z,676
2023-01-15T14:41:34.246Z,568
2023-01-15T14:42:51.350Z,564
2023-01-15T14:44:08.455Z,516
2023-01-15T14:45:25.560Z,508
2023-01-15T14:46:42.665Z,440
2023-01-15T14:47:58.786Z,400
2023-01-15T14:49:15.891Z,352
2023-01-15T14:50:32.996Z,332
2023-01-15T14:51:50.100Z,420
2023-01-15T14:53:07.205Z,428
2023-01-15T14:54:24.310Z,424
2023-01-15T14:55:41.415Z,392
2023-01-15T14:56:58.519Z,372
2023-01-15T14:58:15.625Z,360
2023-01-15T14:59:32.729Z,404
2023-01-15T15:00:49.834Z,404
2023-01-15T15:02:06.939Z,380
2023-01-15T15:03:24.044Z,368
2023-01-15T15:04:40.165Z,352
2023-01-15T15:05:57.270Z,368
2023-01-15T15:07:14.375Z,368
2023-01-15T15:08:31.480Z,376
2023-01-15T15:09:47.606Z,384
2023-01-15T15:11:03.727Z,364
2023-01-15T15:12:20.832Z,292
2023-01-15T15:13:36.958Z,248
2023-01-15T15:14:53.079Z,240
2023-01-15T15:16:10.184Z,244
2023-01-15T15:17:27.289Z,200
2023-01-15T15:18:44.393Z,196
2023-01-15T15:20:01.498Z,212
2023-01-15T15:21:18.603Z,220
2023-01-15T15:22:35.708Z,276
2023-01-15T15:23:52.813Z,228
2023-01-15T15:25:09.918Z,220
2023-01-15T15:26:27.023Z,252
2023-01-15T15:27:44.127Z,244
2023-01-15T15:29:01.232Z,212
2023-01-15T15:30:18.337Z,220
2023-01-15T15:31:34.458Z,216
2023-01-15T15:32:51.563Z,192
2023-01-15T15:34:08.668Z,184
2023-01-15T15:35:25.772Z,152
2023-01-15T15:36:42.878Z,132
2023-01-15T15:37:59.982Z,108
2023-01-15T15:39:17.087Z,96
2023-01-15T15:40:33.213Z,84
2023-01-15T15:41:49.334Z,80
2023-01-15T15:43:06.439Z,84
2023-01-15T15:44:22.565Z,84
2023-01-15T15:45:38.686Z,76
2023-01-15T15:46:55.790Z,64
2023-01-15T15:48:12.895Z,56
2023-01-15T15:49:30.000Z,48
2023-01-15T15:50:47.105Z,40
2023-01-15T15:52:04.210Z,44
2023-01-15T15:53:21.315Z,48
2023-01-15T15:54:38.420Z,48
2023-01-15T15:55:55.525Z,48
2023-01-15T15:57:12.629Z,44
2023-01-15T15:58:29.734Z,32
2023-01-15T15:59:46.839Z,28
2023-01-15T16:01:03.944Z,24
2023-01-15T16:02:20.065Z,24
2023-01-15T16:03:37.170Z,16
2023-01-15T16:04:54.275Z,12
2023-01-15T16:06:11.380Z,12
2023-01-15T16:07:28.485Z,12
2023-01-15T16:08:45.589Z,12
2023-01-15T16:10:02.695Z,8
2023-01-15T16:11:18.821Z,4
2023-01-15T16:12:34.942Z,8
2023-01-15T16:13:51.068Z,4
2023-01-15T16:15:07.189Z,4
2023-01-15T16:16:24.294Z,4
2023-01-15T16:17:41.399Z,0
2023-01-15T16:18:58.504Z,4
2023-01-15T16:20:15.609Z,4
2023-01-15T16:21:32.715Z,0
2023-01-15T16:22:49.820Z,0
2023-01-15T16:24:06.924Z,0
2023-01-15T16:25:24.029Z,0
2023-01-15T16:26:41.134Z,0
2023-01-15T16:27:58.239Z,0
2023-01-15T16:29:15.344Z,0
2023-01-15T16:30:32.449Z,0
2023-01-15T16:31:48.570Z,0
2023-01-15T16:33:05.675Z,0
2023-01-15T16:34:21.796Z,0
2023-01-15T16:35:38.900Z,0
2023-01-15T16:36:56.005Z,0
2023-01-15T16:38:13.110Z,0
2023-01-15T16:39:30.215Z,0
2023-01-15T16:40:46.341Z,0
2023-01-15T16:42:02.462Z,0
2023-01-15T16:43:19.567Z,0
2023-01-15T16:44:35.693Z,0
2023-01-15T16:45:51.814Z,0
2023-01-15T16:47:08.920Z,0
2023-01-15T16:48:26.024Z,0
2023-01-15T16:49:43.129Z,0
2023-01-15T16:51:00.234Z,0
2023-01-15T16:52:17.339Z,0
2023-01-15T16:53:34.444Z,0
2023-01-15T16:54:51.549Z,0
2023-01-15T16:56:08.654Z,0
2023-01-15T16:57:25.759Z,0
2023-01-15T16:58:42.864Z,0
2023-01-15T16:59:59.968Z,0
2023-01-15T17:01:17.073Z,0
2023-01-15T17:02:33.194Z,0
2023-01-15T17:03:50.299Z,0
2023-01-15T17:05:07.404Z,0
2023-01-15T17:06:24.509Z,0
2023-01-15T17:07:41.614Z,0
2023-01-15T17:08:58.719Z,0
2023-01-15T17:10:15.824Z,0
2023-01-15T17:11:31.950Z,0
2023-01-15T17:12:48.071Z,0
2023-01-15T17:14:05.175Z,0
2023-01-15T17:15:21.302Z,0
2023-01-15T17:16:37.422Z,0
2023-01-15T17:17:54.527Z,0
2023-01-15T17:19:11.632Z,0
2023-01-15T17:20:28.737Z,0
2023-01-15T17:21:45.842Z,0
2023-01-15T17:23:02.947Z,0
2023-01-15T17:24:20.052Z,0
2023-01-15T17:25:37.157Z,0
2023-01-15T17:26:54.262Z,0
2023-01-15T17:28:11.366Z,0
2023-01-15T17:29:28.471Z,0
2023-01-15T17:30:45.576Z,0
2023-01-15T17:32:02.681Z,0
2023-01-15T17:33:18.802Z,0
2023-01-15T17:34:35.907Z,0
2023-01-15T17:35:53.012Z,0
2023-01-15T17:37:10.117Z,0
2023-01-15T17:38:27.221Z,0
2023-01-15T17:39:44.326Z,0
2023-01-15T17:41:01.431Z,0
2023-01-15T17:42:17.557Z,0
2023-01-15T17:43:33.678Z,0
2023-01-15T17:44:50.783Z,0
2023-01-15T17:46:07.888Z,0
2023-01-15T17:47:24.993Z,0
2023-01-15T17:48:42.098Z,0
2023-01-15T17:49:58.224Z,0
2023-01-15T17:51:14.345Z,0
2023-01-15T17:52:31.449Z,0
2023-01-15T17:53:48.554Z,0
2023-01-15T17:55:05.659Z,0
2023-01-15T17:56:22.764Z,0
2023-01-15T17:57:39.869Z,0
2023-01-15T17:58:56.973Z,0
2023-01-15T18:00:14.078Z,0
2023-01-15T18:01:31.183Z,0
2023-01-15T18:02:48.288Z,0
2023-01-15T18:04:05.393Z,0
2023-01-15T18:05:22.498Z,0
2023-01-15T18:06:39.603Z,0
2023-01-15T18:07:55.724Z,0
2023-01-15T18:09:12.828Z,0
2023-01-15T18:10:29.933Z,0
2023-01-15T18:11:47.038Z,0
2023-01-15T18:13:04.143Z,0
2023-01-15T18:14:21.248Z,0